Time;durP1;ratioP1;P1;durP2;ratioP2;P2;SDS_P1;SDS_P2;PMS_P1;PMS_P2;Temp;Humidity;BMP_temperature;BMP_pressure;BME280_temperature;BME280_humidity;BME280_pressure;Samples;Min_cycle;Max_cycle;Signal;HPM_P1;HPM_P2
2023/08/10 00:01:21;;;;;;;;;;;21.20;48.70;;;;;;5122855;27;19988;-58
2023/08/10 00:03:49;;;;;;;;;;;21.20;48.70;;;;;;5116561;28;19923;-58
2023/08/10 00:06:16;;;;;;;;;;;21.10;48.60;;;;;;5129641;28;20372;-58
2023/08/10 00:08:42;;;;;;;;;;;21.20;48.70;;;;;;5127466;27;19924;-58
2023/08/10 00:11:09;;;;;;;;;;;21.20;48.80;;;;;;5119322;28;19923;-58
2023/08/10 00:13:36;;;;;;;;;;;21.20;48.80;;;;;;5105140;28;19930;-58
2023/08/10 00:16:03;;;;;;;;;;;21.10;48.70;;;;;;5123467;28;19923;-58
2023/08/10 00:18:30;;;;;;;;;;;21.20;48.80;;;;;;5122205;28;19980;-58
2023/08/10 00:20:58;;;;;;;;;;;21.10;48.70;;;;;;5117260;28;19968;-58
2023/08/10 00:23:25;;;;;;;;;;;21.20;48.80;;;;;;5107022;27;19920;-58
2023/08/10 00:25:52;;;;;;;;;;;21.10;48.70;;;;;;5114990;27;19932;-57
2023/08/10 00:28:19;;;;;;;;;;;21.10;48.70;;;;;;5100212;27;19965;-58
2023/08/10 00:30:46;;;;;;;;;;;21.10;49.30;;;;;;5117745;27;19945;-57
2023/08/10 00:33:13;;;;;;;;;;;21.10;48.70;;;;;;5102997;28;19942;-58
2023/08/10 00:35:40;;;;;;;;;;;21.10;48.70;;;;;;5105400;28;19928;-58
2023/08/10 00:38:08;;;;;;;;;;;21.10;48.70;;;;;;5105496;28;19919;-58
2023/08/10 00:40:35;;;;;;;;;;;21.10;48.70;;;;;;5106402;27;20530;-58
2023/08/10 00:43:02;;;;;;;;;;;21.10;48.80;;;;;;5109262;27;19923;-58
2023/08/10 00:45:29;;;;;;;;;;;21.10;48.70;;;;;;5091760;28;19935;-59
2023/08/10 00:47:56;;;;;;;;;;;21.10;48.80;;;;;;5097802;28;19924;-57
2023/08/10 00:50:23;;;;;;;;;;;21.10;48.80;;;;;;5113230;27;19930;-59
2023/08/10 00:52:50;;;;;;;;;;;21.10;48.80;;;;;;5125986;27;20454;-58
2023/08/10 00:55:18;;;;;;;;;;;21.10;48.80;;;;;;5104178;27;19919;-58
2023/08/10 00:57:45;;;;;;;;;;;21.10;48.80;;;;;;5122172;27;19965;-58
2023/08/10 01:00:13;;;;;;;;;;;21.10;48.80;;;;;;5101167;27;19927;-58
2023/08/10 01:02:40;;;;;;;;;;;21.10;48.80;;;;;;5113777;28;19989;-58
2023/08/10 01:05:07;;;;;;;;;;;21.10;48.90;;;;;;5118585;27;19924;-58
2023/08/10 01:07:35;;;;;;;;;;;21.10;48.90;;;;;;5131240;27;19924;-58
2023/08/10 01:10:05;;;;;;;;;;;21.10;48.80;;;;;;5116887;27;20185;-58
2023/08/10 01:12:34;;;;;;;;;;;21.10;48.90;;;;;;5107054;28;19931;-58
2023/08/10 01:15:03;;;;;;;;;;;21.10;48.90;;;;;;5092726;27;19927;-57
2023/08/10 01:17:30;;;;;;;;;;;21.10;48.90;;;;;;5095403;27;19928;-58
2023/08/10 01:19:57;;;;;;;;;;;21.10;48.90;;;;;;5127135;27;19927;-58
2023/08/10 01:22:25;;;;;;;;;;;21.10;48.90;;;;;;5108189;27;19927;-57
2023/08/10 01:24:56;;;;;;;;;;;21.10;48.90;;;;;;5122081;27;19924;-58
2023/08/10 01:27:23;;;;;;;;;;;21.10;48.90;;;;;;5102618;28;20434;-57
2023/08/10 01:29:50;;;;;;;;;;;21.10;48.90;;;;;;5116705;27;19927;-58
2023/08/10 01:32:17;;;;;;;;;;;21.10;48.90;;;;;;5109134;28;19936;-58
2023/08/10 01:34:44;;;;;;;;;;;21.10;48.90;;;;;;5113420;27;19931;-58
2023/08/10 01:37:11;;;;;;;;;;;21.10;48.90;;;;;;5130533;27;20576;-58
2023/08/10 01:39:37;;;;;;;;;;;21.10;48.90;;;;;;5126414;27;19928;-58
2023/08/10 01:42:06;;;;;;;;;;;21.10;48.90;;;;;;5103492;28;19981;-57
2023/08/10 01:44:32;;;;;;;;;;;21.10;48.90;;;;;;5129415;27;20392;-58
2023/08/10 01:47:01;;;;;;;;;;;21.10;48.90;;;;;;5104627;28;19935;-59
2023/08/10 01:49:27;;;;;;;;;;;21.10;49.00;;;;;;5110252;27;19924;-58
2023/08/10 01:51:54;;;;;;;;;;;21.10;49.00;;;;;;5107139;27;19931;-57
2023/08/10 01:54:21;;;;;;;;;;;21.10;49.00;;;;;;5098917;28;19931;-58
2023/08/10 01:56:48;;;;;;;;;;;21.10;49.00;;;;;;5103850;28;19924;-57
2023/08/10 01:59:16;;;;;;;;;;;21.10;49.00;;;;;;5100104;28;19935;-58
2023/08/10 02:01:42;;;;;;;;;;;21.00;48.90;;;;;;5102561;28;19923;-58
2023/08/10 02:04:09;;;;;;;;;;;21.10;49.00;;;;;;5103256;27;19931;-58
2023/08/10 02:06:39;;;;;;;;;;;21.00;48.90;;;;;;5111357;27;19924;-58
2023/08/10 02:09:06;;;;;;;;;;;21.00;48.90;;;;;;5115691;27;19969;-57
2023/08/10 02:11:32;;;;;;;;;;;21.10;49.00;;;;;;5113750;27;19963;-58
2023/08/10 02:14:00;;;;;;;;;;;21.00;48.90;;;;;;5100938;27;20013;-58
2023/08/10 02:16:28;;;;;;;;;;;21.00;48.90;;;;;;5115915;27;19969;-58
2023/08/10 02:18:55;;;;;;;;;;;21.00;48.90;;;;;;5107932;28;20002;-57
2023/08/10 02:21:23;;;;;;;;;;;21.00;48.90;;;;;;5111268;27;19924;-58
2023/08/10 02:23:50;;;;;;;;;;;21.00;48.90;;;;;;5095070;28;19934;-57
2023/08/10 02:26:17;;;;;;;;;;;21.00;48.90;;;;;;5093317;27;19924;-58
2023/08/10 02:28:44;;;;;;;;;;;21.00;48.80;;;;;;5103141;28;19927;-57
2023/08/10 02:31:10;;;;;;;;;;;21.00;48.80;;;;;;5110455;27;19935;-57
2023/08/10 02:33:38;;;;;;;;;;;21.00;48.80;;;;;;5098076;27;19949;-57
2023/08/10 02:36:05;;;;;;;;;;;21.00;48.70;;;;;;5098213;28;19928;-58
2023/08/10 02:38:32;;;;;;;;;;;21.00;48.70;;;;;;5106455;27;20338;-57
2023/08/10 02:40:59;;;;;;;;;;;21.00;48.70;;;;;;5104175;28;19970;-57
2023/08/10 02:43:26;;;;;;;;;;;21.00;48.70;;;;;;5107670;27;19927;-58
2023/08/10 02:45:53;;;;;;;;;;;21.00;48.70;;;;;;5099799;28;19924;-58
2023/08/10 02:48:20;;;;;;;;;;;21.00;48.70;;;;;;5104173;27;19928;-58
2023/08/10 02:50:49;;;;;;;;;;;21.00;48.70;;;;;;5109802;28;19923;-58
2023/08/10 02:53:16;;;;;;;;;;;21.00;48.70;;;;;;5095163;28;19924;-58
2023/08/10 02:55:42;;;;;;;;;;;21.00;48.70;;;;;;5097713;27;19923;-57
2023/08/10 02:58:09;;;;;;;;;;;21.00;48.70;;;;;;5109210;28;19965;-58
2023/08/10 03:00:37;;;;;;;;;;;21.00;48.60;;;;;;5103464;27;19924;-58
2023/08/10 03:03:04;;;;;;;;;;;21.00;48.60;;;;;;5102539;28;19924;-58
2023/08/10 03:05:30;;;;;;;;;;;21.00;48.60;;;;;;5097760;27;19981;-58
2023/08/10 03:07:59;;;;;;;;;;;21.00;48.70;;;;;;5111671;27;19931;-57
2023/08/10 03:10:26;;;;;;;;;;;21.00;48.60;;;;;;5114505;27;20381;-58
2023/08/10 03:12:53;;;;;;;;;;;21.00;48.50;;;;;;5130973;27;19931;-57
2023/08/10 03:15:20;;;;;;;;;;;21.00;48.50;;;;;;5097637;27;19923;-57
2023/08/10 03:17:47;;;;;;;;;;;21.00;48.50;;;;;;5108168;27;19924;-58
2023/08/10 03:20:16;;;;;;;;;;;21.00;48.50;;;;;;5097890;28;19973;-59
2023/08/10 03:22:43;;;;;;;;;;;21.00;48.40;;;;;;5087951;27;19927;-58
2023/08/10 03:25:11;;;;;;;;;;;21.00;48.40;;;;;;5092918;28;19976;-58
2023/08/10 03:27:38;;;;;;;;;;;21.00;49.00;;;;;;5097297;27;19976;-58
2023/08/10 03:30:06;;;;;;;;;;;20.90;48.30;;;;;;5100868;27;19930;-57
2023/08/10 03:32:32;;;;;;;;;;;21.00;48.30;;;;;;5104667;27;19994;-58
2023/08/10 03:34:59;;;;;;;;;;;20.90;48.20;;;;;;5098020;27;19927;-58
2023/08/10 03:37:26;;;;;;;;;;;20.90;48.20;;;;;;5097862;27;19931;-57
2023/08/10 03:39:53;;;;;;;;;;;20.90;48.20;;;;;;5103692;28;19923;-57
2023/08/10 03:42:22;;;;;;;;;;;20.90;48.20;;;;;;5109713;27;20040;-58
2023/08/10 03:44:48;;;;;;;;;;;20.90;48.10;;;;;;5089600;28;20323;-58
2023/08/10 03:47:15;;;;;;;;;;;20.90;48.10;;;;;;5081749;28;19935;-57
2023/08/10 03:49:42;;;;;;;;;;;20.90;48.10;;;;;;5105453;27;19934;-58
2023/08/10 03:52:09;;;;;;;;;;;20.90;48.10;;;;;;5106108;28;19923;-58
2023/08/10 03:54:35;;;;;;;;;;;20.90;48.70;;;;;;5108256;27;19931;-58
2023/08/10 03:57:03;;;;;;;;;;;20.90;48.70;;;;;;5104933;27;19927;-58
2023/08/10 03:59:31;;;;;;;;;;;20.90;48.00;;;;;;5127718;27;19930;-58
2023/08/10 04:01:58;;;;;;;;;;;20.90;48.00;;;;;;5100395;28;19927;-58
2023/08/10 04:04:24;;;;;;;;;;;20.90;48.00;;;;;;5106895;28;19930;-58
2023/08/10 04:06:51;;;;;;;;;;;20.90;48.00;;;;;;5100437;28;19924;-58
2023/08/10 04:09:18;;;;;;;;;;;20.90;48.00;;;;;;5111534;28;19980;-58
2023/08/10 04:11:45;;;;;;;;;;;20.90;48.00;;;;;;5119991;28;19924;-58
2023/08/10 04:14:12;;;;;;;;;;;20.90;48.00;;;;;;5126583;28;19969;-58
2023/08/10 04:16:40;;;;;;;;;;;20.90;48.00;;;;;;5113407;28;19970;-58
2023/08/10 04:19:07;;;;;;;;;;;20.90;48.00;;;;;;5101725;28;19924;-58
2023/08/10 04:21:33;;;;;;;;;;;20.90;48.00;;;;;;5119613;28;20338;-58
2023/08/10 04:24:00;;;;;;;;;;;20.90;47.90;;;;;;5126796;28;19983;-58
2023/08/10 04:26:27;;;;;;;;;;;20.90;47.90;;;;;;5105135;28;19924;-58
2023/08/10 04:28:54;;;;;;;;;;;20.80;47.70;;;;;;5113917;28;19927;-58
2023/08/10 04:31:20;;;;;;;;;;;20.90;47.80;;;;;;5099973;28;19935;-58
2023/08/10 04:33:48;;;;;;;;;;;20.80;47.70;;;;;;5099237;28;19947;-58
2023/08/10 04:36:15;;;;;;;;;;;20.80;47.70;;;;;;5113020;28;20066;-58
2023/08/10 04:38:42;;;;;;;;;;;20.80;47.70;;;;;;5107138;28;19924;-58
2023/08/10 04:41:09;;;;;;;;;;;20.80;47.70;;;;;;5119946;28;19935;-57
2023/08/10 04:43:36;;;;;;;;;;;20.80;47.60;;;;;;5090562;28;19924;-58
2023/08/10 04:46:03;;;;;;;;;;;20.80;47.70;;;;;;5123122;28;20276;-58
2023/08/10 04:48:30;;;;;;;;;;;20.80;47.70;;;;;;5103694;28;19923;-58
2023/08/10 04:50:58;;;;;;;;;;;20.80;47.70;;;;;;5114283;28;19923;-58
2023/08/10 04:53:25;;;;;;;;;;;20.80;47.70;;;;;;5120406;27;20345;-58
2023/08/10 04:55:51;;;;;;;;;;;20.80;47.70;;;;;;5099648;28;19935;-58
2023/08/10 04:58:18;;;;;;;;;;;20.80;47.70;;;;;;5114824;28;19924;-58
2023/08/10 05:00:45;;;;;;;;;;;20.80;47.80;;;;;;5102823;28;19928;-57
2023/08/10 05:03:12;;;;;;;;;;;20.80;47.80;;;;;;5111539;28;19923;-58
2023/08/10 05:05:39;;;;;;;;;;;20.80;47.80;;;;;;5101341;28;20014;-58
2023/08/10 05:08:07;;;;;;;;;;;20.80;47.90;;;;;;5118096;28;20307;-58
2023/08/10 05:10:34;;;;;;;;;;;20.80;47.90;;;;;;5107600;27;19932;-59
2023/08/10 05:13:01;;;;;;;;;;;20.80;47.90;;;;;;5084932;27;19924;-56
2023/08/10 05:15:28;;;;;;;;;;;20.80;48.00;;;;;;5117157;27;20014;-58
2023/08/10 05:17:55;;;;;;;;;;;20.80;47.90;;;;;;5096676;28;19973;-58
2023/08/10 05:20:22;;;;;;;;;;;20.80;48.00;;;;;;5103942;28;19924;-58
2023/08/10 05:22:50;;;;;;;;;;;20.80;48.00;;;;;;5117563;27;19923;-58
2023/08/10 05:25:18;;;;;;;;;;;20.80;48.10;;;;;;5140791;27;19927;-59
2023/08/10 05:27:45;;;;;;;;;;;20.80;48.00;;;;;;5100624;27;19927;-58
2023/08/10 05:30:12;;;;;;;;;;;20.80;48.00;;;;;;5119998;27;19932;-58
2023/08/10 05:32:39;;;;;;;;;;;20.80;48.10;;;;;;5105137;27;19931;-58
2023/08/10 05:35:07;;;;;;;;;;;20.80;48.10;;;;;;5099789;28;19969;-58
2023/08/10 05:37:34;;;;;;;;;;;20.80;48.20;;;;;;5106955;27;19927;-59
2023/08/10 05:40:01;;;;;;;;;;;20.80;48.20;;;;;;5117366;27;19932;-59
2023/08/10 05:42:31;;;;;;;;;;;20.80;48.20;;;;;;5102670;27;19958;-59
2023/08/10 05:44:57;;;;;;;;;;;20.80;48.30;;;;;;5113279;27;19931;-59
2023/08/10 05:47:24;;;;;;;;;;;20.80;48.30;;;;;;5103895;27;19931;-58
2023/08/10 05:49:51;;;;;;;;;;;20.80;48.30;;;;;;5114343;27;19935;-58
2023/08/10 05:52:18;;;;;;;;;;;20.80;48.30;;;;;;5105039;28;19994;-59
2023/08/10 05:54:45;;;;;;;;;;;20.80;48.40;;;;;;5122772;27;19966;-58
2023/08/10 05:57:11;;;;;;;;;;;20.80;48.40;;;;;;5098547;28;19924;-58
2023/08/10 05:59:40;;;;;;;;;;;20.80;48.40;;;;;;5119110;27;19924;-59
2023/08/10 06:02:07;;;;;;;;;;;20.80;48.50;;;;;;5098009;28;19932;-59
2023/08/10 06:04:34;;;;;;;;;;;20.80;48.50;;;;;;5104320;28;19927;-59
2023/08/10 06:07:01;;;;;;;;;;;20.80;48.50;;;;;;5133430;27;19934;-58
2023/08/10 06:09:28;;;;;;;;;;;20.80;48.60;;;;;;5098688;27;19931;-59
2023/08/10 06:11:55;;;;;;;;;;;20.80;48.60;;;;;;5100267;27;19923;-59
2023/08/10 06:14:22;;;;;;;;;;;20.90;48.70;;;;;;5113528;27;19946;-59
2023/08/10 06:16:50;;;;;;;;;;;20.80;48.70;;;;;;5099369;28;19924;-58
2023/08/10 06:19:17;;;;;;;;;;;20.90;48.70;;;;;;5098640;27;19928;-59
2023/08/10 06:21:44;;;;;;;;;;;20.90;48.80;;;;;;5115703;27;20281;-59
2023/08/10 06:24:11;;;;;;;;;;;20.80;48.70;;;;;;5104353;27;19924;-59
2023/08/10 06:26:37;;;;;;;;;;;20.80;48.80;;;;;;5110255;27;19927;-58
2023/08/10 06:29:04;;;;;;;;;;;20.90;48.90;;;;;;5100285;27;19935;-58
2023/08/10 06:31:31;;;;;;;;;;;20.90;48.90;;;;;;5103215;28;19924;-61
2023/08/10 06:33:59;;;;;;;;;;;20.90;49.00;;;;;;5100758;28;19924;-58
2023/08/10 06:36:26;;;;;;;;;;;20.90;49.00;;;;;;5088405;27;20248;-60
2023/08/10 06:38:53;;;;;;;;;;;20.90;49.10;;;;;;5128038;27;19950;-58
2023/08/10 06:41:20;;;;;;;;;;;20.90;49.10;;;;;;5102682;27;19928;-60
2023/08/10 06:43:47;;;;;;;;;;;20.90;49.10;;;;;;5117909;27;19958;-58
2023/08/10 06:46:14;;;;;;;;;;;20.90;49.10;;;;;;5091879;28;19931;-58
2023/08/10 06:48:41;;;;;;;;;;;20.90;49.10;;;;;;5095220;28;19920;-59
2023/08/10 06:51:09;;;;;;;;;;;20.90;49.10;;;;;;5117556;27;19947;-60
2023/08/10 06:53:38;;;;;;;;;;;20.90;49.00;;;;;;5115145;27;19924;-58
2023/08/10 06:56:05;;;;;;;;;;;20.90;49.00;;;;;;5087523;28;20038;-60
2023/08/10 06:58:32;;;;;;;;;;;20.90;49.00;;;;;;5100038;27;19938;-59
2023/08/10 07:00:59;;;;;;;;;;;20.90;49.00;;;;;;5088022;28;19930;-58
2023/08/10 07:03:26;;;;;;;;;;;20.90;49.00;;;;;;5099910;27;19931;-59
2023/08/10 07:05:54;;;;;;;;;;;20.90;48.90;;;;;;5117087;27;19931;-58
2023/08/10 07:08:23;;;;;;;;;;;20.90;48.90;;;;;;5088640;27;19928;-61
2023/08/10 07:10:50;;;;;;;;;;;20.90;48.90;;;;;;5094017;28;19968;-63
2023/08/10 07:13:16;;;;;;;;;;;20.90;48.90;;;;;;5110876;27;19932;-64
2023/08/10 07:15:45;;;;;;;;;;;20.90;49.00;;;;;;5099981;28;19928;-62
2023/08/10 07:18:12;;;;;;;;;;;20.90;49.00;;;;;;5088520;28;19924;-61
2023/08/10 07:20:40;;;;;;;;;;;21.00;49.00;;;;;;5094604;28;19924;-61
2023/08/10 07:23:07;;;;;;;;;;;21.00;49.00;;;;;;5098345;28;19924;-62
2023/08/10 07:25:36;;;;;;;;;;;21.00;49.00;;;;;;5111318;27;19924;-61
2023/08/10 07:28:03;;;;;;;;;;;21.00;49.10;;;;;;5086476;28;20274;-66
2023/08/10 07:30:30;;;;;;;;;;;21.00;49.00;;;;;;5122973;27;19924;-65
2023/08/10 07:32:57;;;;;;;;;;;21.00;49.00;;;;;;5114049;27;19924;-65
2023/08/10 07:35:24;;;;;;;;;;;21.10;49.10;;;;;;5097862;28;19935;-64
2023/08/10 07:37:51;;;;;;;;;;;21.10;49.70;;;;;;5105597;27;19924;-62
2023/08/10 07:40:17;;;;;;;;;;;21.10;49.10;;;;;;5084909;27;19924;-63
2023/08/10 07:42:46;;;;;;;;;;;21.10;49.10;;;;;;5093954;27;19931;-60
2023/08/10 07:45:12;;;;;;;;;;;21.10;49.00;;;;;;5096302;28;20365;-59
2023/08/10 07:47:39;;;;;;;;;;;21.10;48.80;;;;;;5094051;27;19965;-60
2023/08/10 07:50:06;;;;;;;;;;;21.10;48.40;;;;;;5095059;28;19924;-60
2023/08/10 07:52:33;;;;;;;;;;;21.10;48.00;;;;;;5088351;28;19924;-59
2023/08/10 07:55:00;;;;;;;;;;;21.10;47.70;;;;;;5094960;28;20292;-62
2023/08/10 07:57:27;;;;;;;;;;;21.00;47.70;;;;;;5087561;27;19928;-61
2023/08/10 07:59:56;;;;;;;;;;;20.90;47.50;;;;;;5116541;27;19923;-60
2023/08/10 08:02:27;;;;;;;;;;;20.90;47.40;;;;;;5108126;27;19927;-60
2023/08/10 08:04:53;;;;;;;;;;;20.90;47.50;;;;;;5096032;28;19932;-58
2023/08/10 08:07:20;;;;;;;;;;;20.80;47.40;;;;;;5112583;28;19931;-57
2023/08/10 08:09:47;;;;;;;;;;;20.80;47.60;;;;;;5109085;28;19977;-60
2023/08/10 08:12:14;;;;;;;;;;;20.80;47.70;;;;;;5089317;28;19928;-61
2023/08/10 08:14:41;;;;;;;;;;;20.80;47.70;;;;;;5096998;28;19924;-61
2023/08/10 08:17:09;;;;;;;;;;;20.80;47.80;;;;;;5091293;28;19931;-59
2023/08/10 08:19:36;;;;;;;;;;;20.80;47.80;;;;;;5117007;28;19938;-61
2023/08/10 08:22:03;;;;;;;;;;;20.80;47.90;;;;;;5087390;28;19931;-60
2023/08/10 08:24:30;;;;;;;;;;;20.80;47.90;;;;;;5089817;28;20378;-60
2023/08/10 08:26:57;;;;;;;;;;;20.80;47.90;;;;;;5093968;28;19928;-60
2023/08/10 08:29:24;;;;;;;;;;;20.90;48.00;;;;;;5112111;28;19945;-62
2023/08/10 08:31:51;;;;;;;;;;;20.90;48.00;;;;;;5094904;28;19924;-61
2023/08/10 08:34:19;;;;;;;;;;;20.90;48.20;;;;;;5089495;28;19927;-62
2023/08/10 08:36:45;;;;;;;;;;;20.90;48.20;;;;;;5103206;27;19928;-63
2023/08/10 08:39:12;;;;;;;;;;;20.90;48.30;;;;;;5090884;28;19981;-62
2023/08/10 08:41:39;;;;;;;;;;;21.00;48.40;;;;;;5097585;28;19924;-61
2023/08/10 08:44:06;;;;;;;;;;;21.00;48.40;;;;;;5116523;27;19927;-61
2023/08/10 08:46:33;;;;;;;;;;;21.00;48.40;;;;;;5096160;27;20369;-60
2023/08/10 08:49:00;;;;;;;;;;;21.00;48.40;;;;;;5116298;27;20315;-61
2023/08/10 08:51:28;;;;;;;;;;;21.10;48.40;;;;;;5106977;28;19923;-64
2023/08/10 08:53:55;;;;;;;;;;;21.10;48.50;;;;;;5096056;27;19931;-60
2023/08/10 08:56:22;;;;;;;;;;;21.10;48.40;;;;;;5088184;28;19928;-61
2023/08/10 08:58:49;;;;;;;;;;;21.10;48.40;;;;;;5093653;28;19928;-63
2023/08/10 09:01:16;;;;;;;;;;;21.10;48.40;;;;;;5101427;28;20019;-62
2023/08/10 09:03:43;;;;;;;;;;;21.20;48.60;;;;;;5092330;28;19935;-64
2023/08/10 09:06:10;;;;;;;;;;;21.10;48.40;;;;;;5093084;28;19928;-65
2023/08/10 09:08:38;;;;;;;;;;;21.20;48.50;;;;;;5106243;27;19923;-60
2023/08/10 09:11:05;;;;;;;;;;;21.10;48.50;;;;;;5094822;28;20014;-62
2023/08/10 09:13:32;;;;;;;;;;;21.20;48.50;;;;;;5099390;28;19928;-61
2023/08/10 09:16:05;;;;;;;;;;;21.20;48.60;;;;;;5101377;27;19923;-61
2023/08/10 09:18:33;;;;;;;;;;;21.20;48.50;;;;;;5092962;27;19924;-60
2023/08/10 09:21:07;;;;;;;;;;;21.20;48.50;;;;;;5093278;28;19932;-64
2023/08/10 09:23:35;;;;;;;;;;;21.20;48.60;;;;;;5098358;27;19928;-65
2023/08/10 09:26:07;;;;;;;;;;;21.20;48.50;;;;;;5123425;27;19996;-63
2023/08/10 09:28:35;;;;;;;;;;;21.20;48.50;;;;;;5113020;27;19924;-65
2023/08/10 09:31:02;;;;;;;;;;;21.20;48.50;;;;;;5091146;28;20349;-64
2023/08/10 09:33:30;;;;;;;;;;;21.20;48.50;;;;;;5094915;27;19923;-66
2023/08/10 09:35:59;;;;;;;;;;;21.30;48.60;;;;;;5093980;28;20034;-65
2023/08/10 09:38:25;;;;;;;;;;;21.30;48.60;;;;;;5115438;27;19997;-65
2023/08/10 09:41:00;;;;;;;;;;;21.30;48.60;;;;;;5088208;28;20531;-64
2023/08/10 09:43:29;;;;;;;;;;;21.30;48.50;;;;;;5097071;27;19973;-65
2023/08/10 09:46:03;;;;;;;;;;;21.30;48.60;;;;;;5085594;28;19924;-65
2023/08/10 09:48:34;;;;;;;;;;;21.30;48.60;;;;;;5113973;27;19970;-66
2023/08/10 09:51:02;;;;;;;;;;;21.30;48.60;;;;;;5089723;28;20154;-63
2023/08/10 09:53:29;;;;;;;;;;;21.30;48.50;;;;;;5090746;28;19959;-66
2023/08/10 09:55:56;;;;;;;;;;;21.30;48.60;;;;;;5090433;28;19927;-62
2023/08/10 09:58:22;;;;;;;;;;;21.30;48.50;;;;;;5091084;27;20017;-62
2023/08/10 10:00:51;;;;;;;;;;;21.30;48.40;;;;;;5104528;28;20263;-63
2023/08/10 10:03:17;;;;;;;;;;;21.40;48.50;;;;;;5115656;27;19924;-62
2023/08/10 10:05:44;;;;;;;;;;;21.30;48.50;;;;;;5095224;28;19923;-62
2023/08/10 10:08:11;;;;;;;;;;;21.40;48.60;;;;;;5089061;28;19931;-61
2023/08/10 10:10:38;;;;;;;;;;;21.30;48.50;;;;;;5097448;28;19935;-64
2023/08/10 10:13:05;;;;;;;;;;;21.30;48.40;;;;;;5088980;28;19931;-63
2023/08/10 10:15:32;;;;;;;;;;;21.30;48.40;;;;;;5091365;28;20415;-62
2023/08/10 10:18:00;;;;;;;;;;;21.30;48.40;;;;;;5094668;28;20376;-62
2023/08/10 10:20:26;;;;;;;;;;;21.40;48.60;;;;;;5099597;27;19935;-62
2023/08/10 10:22:53;;;;;;;;;;;21.40;48.40;;;;;;5105319;27;19932;-61
2023/08/10 10:25:20;;;;;;;;;;;21.40;48.50;;;;;;5091977;28;19969;-62
2023/08/10 10:27:47;;;;;;;;;;;21.30;48.40;;;;;;5126538;27;19934;-63
2023/08/10 10:30:16;;;;;;;;;;;21.30;49.00;;;;;;5101121;27;19923;-67
2023/08/10 10:32:43;;;;;;;;;;;21.40;48.50;;;;;;5099724;28;19970;-66
2023/08/10 10:35:13;;;;;;;;;;;21.40;48.50;;;;;;5087166;28;20399;-65
2023/08/10 10:37:40;;;;;;;;;;;21.40;48.50;;;;;;5093247;27;19955;-66
2023/08/10 10:40:16;;;;;;;;;;;21.40;48.50;;;;;;5116289;27;19932;-65
2023/08/10 10:43:01;;;;;;;;;;;21.40;48.50;;;;;;5112020;27;19924;-65
2023/08/10 10:45:28;;;;;;;;;;;21.40;48.50;;;;;;5092183;28;19924;-63
2023/08/10 10:47:55;;;;;;;;;;;21.40;48.50;;;;;;5094057;27;19928;-64
2023/08/10 10:50:24;;;;;;;;;;;21.40;48.40;;;;;;5099027;27;19980;-65
2023/08/10 10:52:55;;;;;;;;;;;21.40;48.40;;;;;;5095664;28;19928;-65
2023/08/10 10:55:22;;;;;;;;;;;21.40;48.40;;;;;;5118345;27;19959;-63
2023/08/10 10:57:49;;;;;;;;;;;21.50;48.50;;;;;;5104346;27;19995;-65
2023/08/10 11:00:16;;;;;;;;;;;21.40;48.40;;;;;;5089243;28;20010;-64
2023/08/10 11:02:45;;;;;;;;;;;21.50;48.50;;;;;;5085878;27;20286;-65
2023/08/10 11:05:12;;;;;;;;;;;21.50;48.40;;;;;;5107352;27;19927;-63
2023/08/10 11:07:44;;;;;;;;;;;21.50;48.40;;;;;;5095738;28;20022;-64
2023/08/10 11:10:11;;;;;;;;;;;21.50;48.40;;;;;;5095379;28;19934;-63
2023/08/10 11:12:38;;;;;;;;;;;21.50;48.30;;;;;;5122248;27;19962;-64
2023/08/10 11:15:05;;;;;;;;;;;21.50;48.30;;;;;;5098269;27;19924;-64
2023/08/10 11:17:33;;;;;;;;;;;21.50;48.30;;;;;;5101318;27;19985;-64
2023/08/10 11:20:00;;;;;;;;;;;21.40;48.10;;;;;;5127935;27;20426;-64
2023/08/10 11:22:27;;;;;;;;;;;21.50;48.20;;;;;;5099555;27;19969;-64
2023/08/10 11:24:55;;;;;;;;;;;21.50;48.30;;;;;;5091703;28;20381;-58
2023/08/10 11:27:22;;;;;;;;;;;21.40;48.10;;;;;;5092985;28;19935;-61
2023/08/10 11:29:49;;;;;;;;;;;21.50;48.20;;;;;;5101721;27;19919;-58
2023/08/10 11:32:16;;;;;;;;;;;21.50;48.20;;;;;;5093865;28;19923;-60
2023/08/10 11:34:43;;;;;;;;;;;21.50;48.10;;;;;;5093252;28;19924;-61
2023/08/10 11:37:09;;;;;;;;;;;21.50;48.20;;;;;;5090839;28;19923;-60
2023/08/10 11:39:36;;;;;;;;;;;21.50;48.20;;;;;;5115441;27;19988;-62
2023/08/10 11:42:04;;;;;;;;;;;21.50;48.20;;;;;;5104341;27;20319;-61
2023/08/10 11:44:33;;;;;;;;;;;21.50;48.20;;;;;;5118899;27;19938;-59
2023/08/10 11:47:00;;;;;;;;;;;21.50;48.20;;;;;;5096357;27;20373;-60
2023/08/10 11:49:28;;;;;;;;;;;21.50;48.00;;;;;;5092065;27;19923;-61
2023/08/10 11:51:59;;;;;;;;;;;21.50;47.80;;;;;;5098483;28;19974;-60
2023/08/10 11:54:29;;;;;;;;;;;21.50;47.90;;;;;;5100371;28;20058;-59
2023/08/10 11:56:56;;;;;;;;;;;21.50;47.90;;;;;;5083387;28;19967;-58
2023/08/10 11:59:24;;;;;;;;;;;21.50;48.00;;;;;;5103645;27;19992;-59
2023/08/10 12:01:52;;;;;;;;;;;21.50;48.10;;;;;;5095283;28;20048;-59
2023/08/10 12:04:18;;;;;;;;;;;21.50;48.10;;;;;;5099292;28;20344;-59
2023/08/10 12:06:45;;;;;;;;;;;21.50;48.10;;;;;;5126202;28;20398;-60
2023/08/10 12:09:12;;;;;;;;;;;21.50;48.10;;;;;;5095172;28;19923;-60
2023/08/10 12:11:39;;;;;;;;;;;21.50;47.90;;;;;;5096326;28;19927;-61
2023/08/10 12:14:07;;;;;;;;;;;21.60;48.10;;;;;;5093288;28;19923;-60
2023/08/10 12:16:35;;;;;;;;;;;21.50;48.10;;;;;;5107060;28;19998;-60
2023/08/10 12:19:02;;;;;;;;;;;21.50;48.10;;;;;;5122872;27;20336;-60
2023/08/10 12:21:29;;;;;;;;;;;21.50;48.00;;;;;;5095005;27;19932;-60
2023/08/10 12:23:56;;;;;;;;;;;21.50;48.00;;;;;;5096455;28;19928;-58
2023/08/10 12:26:23;;;;;;;;;;;21.50;47.90;;;;;;5093494;27;19931;-58
2023/08/10 12:28:50;;;;;;;;;;;21.50;47.90;;;;;;5093475;28;19935;-61
2023/08/10 12:31:16;;;;;;;;;;;21.60;48.10;;;;;;5095780;27;20022;-59
2023/08/10 12:33:45;;;;;;;;;;;21.50;47.90;;;;;;5100117;27;20368;-59
2023/08/10 12:36:11;;;;;;;;;;;21.60;48.00;;;;;;5120759;27;20384;-59
2023/08/10 12:38:38;;;;;;;;;;;21.60;47.90;;;;;;5113355;27;19927;-60
2023/08/10 12:41:05;;;;;;;;;;;21.60;47.80;;;;;;5101323;28;19931;-59
2023/08/10 12:43:32;;;;;;;;;;;21.60;47.60;;;;;;5093547;27;19931;-60
2023/08/10 12:45:58;;;;;;;;;;;21.60;47.70;;;;;;5118806;27;19932;-60
2023/08/10 12:48:25;;;;;;;;;;;21.60;47.70;;;;;;5111974;27;19931;-59
2023/08/10 12:50:53;;;;;;;;;;;21.60;47.80;;;;;;5099017;27;19928;-60
2023/08/10 12:53:20;;;;;;;;;;;21.60;47.70;;;;;;5099042;27;20153;-59
2023/08/10 12:55:47;;;;;;;;;;;21.60;47.70;;;;;;5108264;27;19927;-58
2023/08/10 12:58:15;;;;;;;;;;;21.60;47.80;;;;;;5101383;28;19930;-60
2023/08/10 13:00:42;;;;;;;;;;;21.50;47.70;;;;;;5084614;28;19966;-58
2023/08/10 13:03:09;;;;;;;;;;;21.60;48.30;;;;;;5091248;27;20100;-58
2023/08/10 13:05:35;;;;;;;;;;;21.60;47.80;;;;;;5105084;27;20442;-59
2023/08/10 13:08:04;;;;;;;;;;;21.50;47.70;;;;;;5104180;28;19930;-61
2023/08/10 13:10:31;;;;;;;;;;;21.60;47.80;;;;;;5098874;27;19932;-61
2023/08/10 13:12:57;;;;;;;;;;;21.60;47.80;;;;;;5108384;27;19931;-61
2023/08/10 13:15:24;;;;;;;;;;;21.60;47.80;;;;;;5101217;27;20010;-61
2023/08/10 13:17:52;;;;;;;;;;;21.60;47.80;;;;;;5131282;27;19931;-58
2023/08/10 13:20:19;;;;;;;;;;;21.60;47.70;;;;;;5120313;27;19928;-58
2023/08/10 13:22:47;;;;;;;;;;;21.60;47.50;;;;;;5122011;27;19927;-60
2023/08/10 13:25:15;;;;;;;;;;;21.60;47.70;;;;;;5094108;28;19931;-60
2023/08/10 13:27:42;;;;;;;;;;;21.60;47.70;;;;;;5101560;28;19924;-60
2023/08/10 13:30:10;;;;;;;;;;;21.60;47.70;;;;;;5096044;28;20453;-59
2023/08/10 13:32:37;;;;;;;;;;;21.60;47.50;;;;;;5106012;27;19924;-61
2023/08/10 13:35:04;;;;;;;;;;;21.60;47.20;;;;;;5095657;28;19936;-59
2023/08/10 13:37:33;;;;;;;;;;;21.60;47.50;;;;;;5091327;27;19923;-60
2023/08/10 13:40:00;;;;;;;;;;;21.60;47.40;;;;;;5103467;28;19977;-60
2023/08/10 13:42:29;;;;;;;;;;;21.60;47.30;;;;;;5104486;27;19935;-61
2023/08/10 13:44:56;;;;;;;;;;;21.60;47.30;;;;;;5095167;28;19951;-61
2023/08/10 13:47:23;;;;;;;;;;;21.60;47.40;;;;;;5124083;27;19973;-61
2023/08/10 13:49:51;;;;;;;;;;;21.60;47.50;;;;;;5100866;27;19927;-61
2023/08/10 13:52:18;;;;;;;;;;;21.60;47.50;;;;;;5114994;27;20338;-61
2023/08/10 13:54:45;;;;;;;;;;;21.60;47.50;;;;;;5103963;28;20276;-60
2023/08/10 13:57:12;;;;;;;;;;;21.70;47.40;;;;;;5097800;27;20032;-60
2023/08/10 13:59:40;;;;;;;;;;;21.60;47.40;;;;;;5100193;28;19924;-60
2023/08/10 14:02:08;;;;;;;;;;;21.60;47.40;;;;;;5100336;28;19924;-58
2023/08/10 14:04:34;;;;;;;;;;;21.70;47.50;;;;;;5094305;27;19931;-60
2023/08/10 14:07:01;;;;;;;;;;;21.70;47.40;;;;;;5100491;28;20299;-59
2023/08/10 14:09:28;;;;;;;;;;;21.70;47.40;;;;;;5094344;28;20365;-59
2023/08/10 14:11:55;;;;;;;;;;;21.70;47.20;;;;;;5092879;28;19946;-58
2023/08/10 14:14:21;;;;;;;;;;;21.70;47.40;;;;;;5121086;27;19924;-59
2023/08/10 14:16:50;;;;;;;;;;;21.70;47.40;;;;;;5093729;28;19930;-58